createdAt,value
2017-08-07T00:00:04.207Z,4.00
2017-08-07T00:02:30.792Z,4.35
2017-08-07T00:04:57.050Z,3.53
2017-08-07T00:07:23.349Z,4.00
2017-08-07T00:09:49.633Z,3.80
2017-08-07T00:12:15.930Z,3.87
2017-08-07T00:14:42.231Z,3.65
2017-08-07T00:17:08.496Z,3.65
2017-08-07T00:19:34.791Z,4.80
2017-08-07T00:22:01.095Z,4.82
2017-08-07T00:24:28.197Z,4.70
2017-08-07T00:26:54.460Z,4.65
2017-08-07T00:29:20.730Z,4.12
2017-08-07T00:31:46.997Z,4.37
2017-08-07T00:34:13.266Z,4.70
2017-08-07T00:36:39.557Z,5.25
2017-08-07T00:39:05.846Z,4.45
2017-08-07T00:41:32.133Z,5.12
2017-08-07T00:43:58.789Z,4.62
2017-08-07T00:46:25.056Z,4.80
2017-08-07T00:48:51.333Z,4.70
2017-08-07T00:51:17.627Z,3.87
2017-08-07T00:53:43.898Z,3.95
2017-08-07T00:56:10.547Z,5.47
2017-08-07T00:58:36.831Z,4.22
2017-08-07T01:01:03.106Z,4.00
2017-08-07T01:03:29.390Z,4.22
2017-08-07T01:05:55.656Z,4.18
2017-08-07T01:08:22.596Z,4.20
2017-08-07T01:10:48.853Z,4.30
2017-08-07T01:13:15.106Z,4.85
2017-08-07T01:15:41.396Z,4.35
2017-08-07T01:18:07.659Z,4.18
2017-08-07T01:20:33.949Z,5.28
2017-08-07T01:23:00.231Z,4.93
2017-08-07T01:25:26.479Z,4.90
2017-08-07T01:27:52.757Z,4.50
2017-08-07T01:30:19.066Z,4.75
2017-08-07T01:32:45.388Z,5.60
2017-08-07T01:35:12.023Z,4.53
2017-08-07T01:37:38.672Z,4.70
2017-08-07T01:40:05.318Z,4.50
2017-08-07T01:42:31.614Z,4.72
2017-08-07T01:44:57.881Z,4.80
2017-08-07T01:47:24.160Z,5.50
2017-08-07T01:49:50.446Z,5.50
2017-08-07T01:52:16.747Z,5.72
2017-08-07T01:54:43.024Z,5.65
2017-08-07T01:57:09.622Z,5.80
2017-08-07T01:59:35.921Z,6.35
2017-08-07T02:02:02.231Z,5.43
2017-08-07T02:04:28.519Z,6.18
2017-08-07T02:06:54.766Z,6.20
2017-08-07T02:09:21.056Z,6.20
2017-08-07T02:11:47.727Z,6.40
2017-08-07T02:14:14.057Z,5.57
2017-08-07T02:16:40.335Z,5.78
2017-08-07T02:19:06.581Z,5.57
2017-08-07T02:21:32.871Z,5.28
2017-08-07T02:23:59.159Z,5.57
2017-08-07T02:26:25.464Z,6.62
2017-08-07T02:28:51.696Z,5.62
2017-08-07T02:31:18.615Z,5.43
2017-08-07T02:33:44.911Z,6.07
2017-08-07T02:36:11.173Z,5.57
2017-08-07T02:38:37.435Z,6.15
2017-08-07T02:41:04.060Z,5.75
2017-08-07T02:43:30.347Z,5.80
2017-08-07T02:45:56.616Z,5.75
2017-08-07T02:48:22.913Z,6.62
2017-08-07T02:50:49.188Z,6.00
2017-08-07T02:53:15.822Z,5.95
2017-08-07T02:55:42.480Z,5.60
2017-08-07T02:58:08.787Z,6.82
2017-08-07T03:00:35.101Z,6.40
2017-08-07T03:03:01.371Z,6.93
2017-08-07T03:05:27.635Z,5.72
2017-08-07T03:07:53.930Z,6.85
2017-08-07T03:10:20.194Z,6.32
2017-08-07T03:12:46.474Z,5.93
2017-08-07T03:15:13.141Z,6.10
2017-08-07T03:17:39.410Z,6.50
2017-08-07T03:20:05.973Z,5.97
2017-08-07T03:22:32.602Z,5.95
2017-08-07T03:24:58.860Z,5.50
2017-08-07T03:27:25.167Z,6.37
2017-08-07T03:29:51.421Z,6.65
2017-08-07T03:32:17.698Z,6.50
2017-08-07T03:34:43.961Z,6.37
2017-08-07T03:37:10.626Z,7.18
2017-08-07T03:39:36.898Z,7.97
2017-08-07T03:42:03.521Z,6.82
2017-08-07T03:44:29.769Z,6.72
2017-08-07T03:46:56.037Z,6.97
2017-08-07T03:49:22.310Z,5.95
2017-08-07T03:51:48.565Z,6.97
2017-08-07T03:54:14.829Z,7.50
2017-08-07T03:56:41.072Z,6.87
2017-08-07T03:59:07.371Z,6.62
2017-08-07T04:01:33.644Z,6.75
2017-08-07T04:04:00.297Z,7.25
2017-08-07T04:06:26.552Z,6.65
2017-08-07T04:08:52.805Z,6.93
2017-08-07T04:11:19.091Z,6.32
2017-08-07T04:13:45.349Z,6.90
2017-08-07T04:16:11.641Z,6.82
2017-08-07T04:18:37.893Z,7.50
2017-08-07T04:21:04.178Z,7.55
2017-08-07T04:23:30.439Z,7.30
2017-08-07T04:25:57.059Z,7.25
2017-08-07T04:28:23.346Z,7.10
2017-08-07T04:30:49.589Z,6.75
2017-08-07T04:33:15.878Z,6.53
2017-08-07T04:35:42.516Z,6.45
2017-08-07T04:38:09.179Z,6.85
2017-08-07T04:40:35.432Z,7.20
2017-08-07T04:43:01.989Z,7.15
2017-08-07T04:45:28.250Z,7.53
2017-08-07T04:47:54.878Z,7.35
2017-08-07T04:50:21.590Z,7.40
2017-08-07T04:52:47.862Z,6.93
2017-08-07T04:55:14.129Z,8.20
2017-08-07T04:57:40.391Z,8.05
2017-08-07T05:00:06.671Z,7.97
2017-08-07T05:02:32.949Z,8.05
2017-08-07T05:04:59.216Z,9.30
2017-08-07T05:07:25.506Z,9.10
2017-08-07T05:09:51.793Z,8.70
2017-08-07T05:12:18.106Z,10.25
2017-08-07T05:14:44.361Z,9.65
2017-08-07T05:17:10.617Z,9.15
2017-08-07T05:19:36.913Z,9.85
2017-08-07T05:22:03.153Z,9.38
2017-08-07T05:24:29.437Z,9.90
2017-08-07T05:26:55.698Z,10.48
2017-08-07T05:29:22.021Z,10.10
2017-08-07T05:31:48.287Z,11.20
2017-08-07T05:34:14.557Z,10.65
2017-08-07T05:36:40.821Z,11.65
2017-08-07T05:39:07.111Z,10.85
2017-08-07T05:41:33.405Z,10.13
2017-08-07T05:43:59.669Z,10.88
2017-08-07T05:46:25.950Z,10.43
2017-08-07T05:48:52.228Z,10.15
2017-08-07T05:51:18.869Z,11.23
2017-08-07T05:53:45.489Z,10.32
2017-08-07T05:56:11.786Z,12.10
2017-08-07T05:58:38.077Z,10.70
2017-08-07T06:01:04.380Z,11.12
2017-08-07T06:03:30.671Z,10.48
2017-08-07T06:05:56.942Z,10.40
2017-08-07T06:08:23.228Z,11.38
2017-08-07T06:10:49.497Z,10.20
2017-08-07T06:13:15.779Z,10.20
2017-08-07T06:15:42.037Z,10.93
2017-08-07T06:18:08.292Z,9.63
2017-08-07T06:20:34.595Z,10.07
2017-08-07T06:23:00.899Z,10.90
2017-08-07T06:25:27.203Z,10.63
2017-08-07T06:27:53.513Z,10.38
2017-08-07T06:30:19.780Z,9.85
2017-08-07T06:32:46.084Z,10.93
2017-08-07T06:35:12.395Z,10.40
2017-08-07T06:37:39.051Z,9.57
2017-08-07T06:40:11.927Z,9.63
2017-08-07T06:42:38.225Z,9.50
2017-08-07T06:45:04.495Z,8.90
2017-08-07T06:47:30.830Z,10.07
2017-08-07T06:49:57.102Z,8.50
2017-08-07T06:52:23.379Z,8.40
2017-08-07T06:54:50.066Z,8.35
2017-08-07T06:57:16.349Z,9.82
2017-08-07T06:59:42.640Z,10.13
2017-08-07T07:02:08.946Z,8.98
2017-08-07T07:04:35.622Z,8.90
2017-08-07T07:07:01.895Z,9.63
2017-08-07T07:09:28.178Z,9.20
2017-08-07T07:11:54.471Z,10.03
2017-08-07T07:14:20.757Z,9.45
2017-08-07T07:16:47.092Z,8.98
2017-08-07T07:19:13.761Z,8.27
2017-08-07T07:21:40.028Z,9.10
2017-08-07T07:24:06.279Z,8.47
2017-08-07T07:26:32.901Z,7.73
2017-08-07T07:28:59.185Z,8.30
2017-08-07T07:31:25.484Z,8.30
2017-08-07T07:33:52.143Z,10.00
2017-08-07T07:36:18.423Z,10.03
2017-08-07T07:38:44.707Z,8.33
2017-08-07T07:41:11.002Z,9.70
2017-08-07T07:43:37.650Z,9.23
2017-08-07T07:46:04.284Z,8.93
2017-08-07T07:48:30.925Z,9.13
2017-08-07T07:50:57.635Z,9.40
2017-08-07T07:53:23.913Z,8.70
2017-08-07T07:55:50.234Z,8.70
2017-08-07T07:58:16.511Z,7.87
2017-08-07T08:00:42.836Z,7.50
2017-08-07T08:03:09.095Z,7.93
2017-08-07T08:05:35.365Z,8.90
2017-08-07T08:08:01.650Z,7.37
2017-08-07T08:10:28.282Z,7.53
2017-08-07T08:12:54.550Z,7.03
2017-08-07T08:15:20.806Z,7.93
2017-08-07T08:17:47.087Z,8.00
2017-08-07T08:20:13.741Z,6.70
2017-08-07T08:22:40.033Z,8.67
2017-08-07T08:25:06.342Z,8.27
2017-08-07T08:27:32.634Z,8.23
2017-08-07T08:29:58.913Z,7.33
2017-08-07T08:32:25.203Z,7.00
2017-08-07T08:34:51.498Z,7.37
2017-08-07T08:37:18.134Z,7.00
2017-08-07T08:39:44.788Z,7.57
2017-08-07T08:42:11.456Z,6.70
2017-08-07T08:44:37.765Z,7.17
2017-08-07T08:47:04.093Z,8.00
2017-08-07T08:49:31.497Z,6.50
2017-08-07T08:51:57.754Z,5.50
2017-08-07T08:54:24.027Z,6.43
2017-08-07T08:56:50.333Z,6.10
2017-08-07T08:59:16.652Z,5.27
2017-08-07T09:01:43.336Z,4.67
2017-08-07T09:04:09.696Z,5.40
2017-08-07T09:06:36.026Z,5.57
2017-08-07T09:09:02.386Z,6.60
2017-08-07T09:11:29.033Z,4.83
2017-08-07T09:13:55.674Z,4.90
2017-08-07T09:16:21.962Z,5.33
2017-08-07T09:18:48.250Z,4.57
2017-08-07T09:21:14.525Z,5.50
2017-08-07T09:23:40.815Z,4.70
2017-08-07T09:26:07.066Z,4.23
2017-08-07T09:28:33.394Z,4.77
2017-08-07T09:30:59.703Z,4.67
2017-08-07T09:33:25.972Z,4.53
2017-08-07T09:35:52.228Z,4.43
2017-08-07T09:38:18.529Z,4.20
2017-08-07T09:40:44.797Z,4.40
2017-08-07T09:43:11.424Z,4.00
2017-08-07T09:45:38.063Z,3.53
2017-08-07T09:48:04.716Z,3.83
2017-08-07T09:50:31.004Z,3.87
2017-08-07T09:52:57.277Z,3.40
2017-08-07T09:55:23.866Z,4.20
2017-08-07T09:57:50.116Z,4.03
2017-08-07T10:00:16.362Z,3.30
2017-08-07T10:02:42.636Z,3.53
2017-08-07T10:05:08.922Z,4.10
2017-08-07T10:07:35.593Z,3.97
2017-08-07T10:10:01.886Z,3.60
2017-08-07T10:12:28.140Z,3.10
2017-08-07T10:14:54.417Z,3.00
2017-08-07T10:17:21.165Z,3.60
2017-08-07T10:19:47.453Z,3.50
2017-08-07T10:22:13.715Z,3.50
2017-08-07T10:24:40.009Z,4.10
2017-08-07T10:27:06.261Z,4.40
2017-08-07T10:29:32.924Z,3.60
2017-08-07T10:31:59.175Z,3.97
2017-08-07T10:34:25.446Z,3.60
2017-08-07T10:36:51.738Z,3.23
2017-08-07T10:39:18.064Z,3.90
2017-08-07T10:41:44.327Z,3.50
2017-08-07T10:44:10.581Z,4.10
2017-08-07T10:46:36.892Z,3.50
2017-08-07T10:49:03.140Z,3.30
2017-08-07T10:51:30.395Z,3.50
2017-08-07T10:53:56.676Z,4.87
2017-08-07T10:56:23.009Z,4.10
2017-08-07T10:58:49.285Z,3.30
2017-08-07T11:01:15.875Z,4.03
2017-08-07T11:03:42.154Z,3.03
2017-08-07T11:06:08.411Z,4.00
2017-08-07T11:08:34.683Z,4.03
2017-08-07T11:11:00.995Z,3.40
2017-08-07T11:13:27.308Z,3.40
2017-08-07T11:15:53.593Z,3.60
2017-08-07T11:18:19.893Z,3.80
2017-08-07T11:20:46.164Z,3.10
2017-08-07T11:23:12.706Z,4.17
2017-08-07T11:25:39.358Z,3.20
2017-08-07T11:28:06.033Z,3.60
2017-08-07T11:30:32.349Z,3.30
2017-08-07T11:32:58.621Z,3.63
2017-08-07T11:35:24.916Z,2.70
2017-08-07T11:37:51.170Z,3.23
2017-08-07T11:40:17.467Z,3.63
2017-08-07T11:42:43.734Z,3.00
2017-08-07T11:45:10.297Z,3.50
2017-08-07T11:47:36.556Z,3.90
2017-08-07T11:50:02.845Z,3.10
2017-08-07T11:52:29.130Z,4.00
2017-08-07T11:54:55.414Z,2.73
2017-08-07T11:57:21.727Z,3.73
2017-08-07T11:59:48.007Z,3.47
2017-08-07T12:02:14.323Z,3.70
2017-08-07T12:04:40.592Z,3.87
2017-08-07T12:07:06.885Z,4.07
2017-08-07T12:09:33.146Z,2.93
2017-08-07T12:11:59.505Z,3.50
2017-08-07T12:14:25.774Z,3.20
2017-08-07T12:16:52.069Z,3.20
2017-08-07T12:19:18.366Z,4.07
2017-08-07T12:21:44.649Z,3.30
2017-08-07T12:24:11.316Z,3.10
2017-08-07T12:26:37.657Z,3.80
2017-08-07T12:29:03.944Z,4.27
2017-08-07T12:31:30.584Z,4.10
2017-08-07T12:33:57.127Z,4.10
2017-08-07T12:36:23.396Z,3.63
2017-08-07T12:38:49.696Z,3.23
2017-08-07T12:41:15.981Z,2.77
2017-08-07T12:43:42.267Z,3.90
2017-08-07T12:46:08.546Z,3.63
2017-08-07T12:48:34.830Z,3.37
2017-08-07T12:51:01.105Z,3.57
2017-08-07T12:53:27.359Z,2.93
2017-08-07T12:55:53.646Z,2.40
2017-08-07T12:58:19.934Z,3.70
2017-08-07T13:00:46.225Z,3.40
2017-08-07T13:03:12.489Z,3.60
2017-08-07T13:05:38.765Z,3.43
2017-08-07T13:08:05.052Z,4.00
2017-08-07T13:10:31.312Z,3.83
2017-08-07T13:12:57.972Z,3.50
2017-08-07T13:15:24.238Z,3.60
2017-08-07T13:17:50.499Z,3.87
2017-08-07T13:20:16.777Z,3.10
2017-08-07T13:22:43.412Z,3.30
2017-08-07T13:25:10.078Z,3.33
2017-08-07T13:27:36.382Z,3.47
2017-08-07T13:30:02.800Z,3.87
2017-08-07T13:32:29.079Z,3.40
2017-08-07T13:34:55.859Z,3.40
2017-08-07T13:37:22.121Z,4.22
2017-08-07T13:39:48.411Z,3.80
2017-08-07T13:42:14.724Z,3.60
2017-08-07T13:44:40.997Z,3.80
2017-08-07T13:47:07.325Z,3.93
2017-08-07T13:49:33.988Z,3.80
2017-08-07T13:52:00.270Z,3.87
2017-08-07T13:54:26.520Z,3.77
2017-08-07T13:56:52.831Z,4.17
2017-08-07T13:59:19.144Z,3.90
2017-08-07T14:01:45.426Z,4.63
2017-08-07T14:04:11.726Z,4.57
2017-08-07T14:06:38.066Z,3.73
2017-08-07T14:09:04.357Z,4.00
2017-08-07T14:11:30.618Z,4.00
2017-08-07T14:13:56.951Z,4.00
2017-08-07T14:16:23.206Z,4.28
2017-08-07T14:18:49.506Z,3.63
2017-08-07T14:21:15.802Z,4.03
2017-08-07T14:23:42.122Z,3.15
2017-08-07T14:26:08.442Z,4.20
2017-08-07T14:28:34.721Z,4.12
2017-08-07T14:31:01.007Z,4.00
2017-08-07T14:33:27.277Z,4.47
2017-08-07T14:35:53.570Z,3.95
2017-08-07T14:38:19.850Z,3.72
2017-08-07T14:40:46.197Z,3.53
2017-08-07T14:43:12.838Z,3.22
2017-08-07T14:45:39.950Z,2.97
2017-08-07T14:48:06.234Z,2.80
2017-08-07T14:50:32.599Z,2.63
2017-08-07T14:52:58.882Z,2.97
2017-08-07T14:55:25.146Z,3.17
2017-08-07T14:57:51.426Z,2.83
2017-08-07T15:00:18.049Z,2.90
2017-08-07T15:02:44.610Z,2.67
2017-08-07T15:05:10.882Z,2.70
2017-08-07T15:07:37.155Z,2.50
2017-08-07T15:10:03.820Z,2.30
2017-08-07T15:12:30.091Z,2.63
2017-08-07T15:14:56.441Z,2.77
2017-08-07T15:17:22.712Z,2.50
2017-08-07T15:19:48.996Z,2.00
2017-08-07T15:22:15.269Z,2.50
2017-08-07T15:24:41.545Z,2.30
2017-08-07T15:27:07.846Z,5.60
2017-08-07T15:29:34.086Z,3.30
2017-08-07T15:32:00.384Z,2.60
2017-08-07T15:34:26.638Z,2.10
2017-08-07T15:36:52.930Z,2.73
2017-08-07T15:39:19.195Z,2.20
2017-08-07T15:41:45.474Z,2.60
2017-08-07T15:44:11.783Z,2.70
2017-08-07T15:46:38.104Z,2.33
2017-08-07T15:49:04.399Z,2.60
2017-08-07T15:51:30.691Z,2.17
2017-08-07T15:53:57.370Z,2.30
2017-08-07T15:56:23.645Z,2.37
2017-08-07T15:58:49.941Z,2.60
2017-08-07T16:01:16.214Z,2.67
2017-08-07T16:03:42.882Z,2.50
2017-08-07T16:06:09.166Z,2.30
2017-08-07T16:08:35.441Z,2.47
2017-08-07T16:11:01.725Z,2.20
2017-08-07T16:13:28.042Z,2.30
2017-08-07T16:15:54.345Z,2.70
2017-08-07T16:18:20.654Z,3.43
2017-08-07T16:20:47.277Z,2.63
2017-08-07T16:23:13.921Z,2.33
2017-08-07T16:25:41.038Z,2.30
2017-08-07T16:28:07.407Z,2.73
2017-08-07T16:30:34.064Z,2.90
2017-08-07T16:33:00.371Z,2.97
2017-08-07T16:35:26.645Z,2.40
2017-08-07T16:37:52.925Z,3.30
2017-08-07T16:40:19.574Z,2.97
2017-08-07T16:42:45.900Z,2.67
2017-08-07T16:45:12.177Z,2.50
2017-08-07T16:47:38.478Z,2.47
2017-08-07T16:50:04.756Z,2.87
2017-08-07T16:52:31.389Z,2.50
2017-08-07T16:54:57.683Z,2.93
2017-08-07T16:57:23.981Z,2.40
2017-08-07T16:59:50.641Z,3.37
2017-08-07T17:02:17.932Z,4.03
2017-08-07T17:04:44.231Z,2.60
2017-08-07T17:07:10.545Z,3.17
2017-08-07T17:09:37.673Z,2.80
2017-08-07T17:12:03.966Z,3.10
2017-08-07T17:14:30.252Z,3.20
2017-08-07T17:16:56.535Z,3.20
2017-08-07T17:19:22.863Z,3.10
2017-08-07T17:21:49.159Z,3.43
2017-08-07T17:24:15.443Z,3.53
2017-08-07T17:26:42.068Z,4.07
2017-08-07T17:29:08.326Z,3.50
2017-08-07T17:31:34.605Z,3.43
2017-08-07T17:34:00.898Z,3.30
2017-08-07T17:36:27.149Z,3.60
2017-08-07T17:38:53.451Z,4.87
2017-08-07T17:41:19.729Z,3.73
2017-08-07T17:43:46.019Z,3.67
2017-08-07T17:46:12.301Z,4.10
2017-08-07T17:48:38.931Z,3.70
2017-08-07T17:51:05.202Z,3.63
2017-08-07T17:53:31.458Z,3.30
2017-08-07T17:55:57.749Z,3.60
2017-08-07T17:58:24.394Z,4.20
2017-08-07T18:00:51.052Z,3.77
2017-08-07T18:03:17.304Z,3.80
2017-08-07T18:05:43.612Z,3.80
2017-08-07T18:08:09.885Z,4.07
2017-08-07T18:10:36.629Z,3.53
2017-08-07T18:13:02.884Z,3.80
2017-08-07T18:15:29.165Z,4.20
2017-08-07T18:17:55.482Z,3.80
2017-08-07T18:20:21.754Z,4.00
2017-08-07T18:22:48.041Z,4.27
2017-08-07T18:25:14.330Z,4.20
2017-08-07T18:27:41.006Z,4.43
2017-08-07T18:30:07.282Z,4.27
2017-08-07T18:32:33.576Z,4.30
2017-08-07T18:34:59.881Z,4.23
2017-08-07T18:37:26.172Z,3.90
2017-08-07T18:39:52.446Z,4.80
2017-08-07T18:42:18.760Z,4.90
2017-08-07T18:44:45.045Z,4.80
2017-08-07T18:47:11.344Z,4.23
2017-08-07T18:49:37.662Z,4.23
2017-08-07T18:52:03.967Z,5.00
2017-08-07T18:54:30.590Z,4.67
2017-08-07T18:56:56.915Z,4.70
2017-08-07T18:59:23.245Z,4.60
2017-08-07T19:01:49.562Z,4.40
2017-08-07T19:04:15.838Z,4.83
2017-08-07T19:06:42.175Z,4.77
2017-08-07T19:09:09.298Z,4.70
2017-08-07T19:11:36.268Z,4.17
2017-08-07T19:14:02.569Z,5.10
2017-08-07T19:16:28.866Z,4.33
2017-08-07T19:18:55.164Z,5.47
2017-08-07T19:21:21.750Z,4.63
2017-08-07T19:23:48.078Z,5.20
2017-08-07T19:26:14.363Z,4.63
2017-08-07T19:28:40.807Z,4.60
2017-08-07T19:31:07.095Z,4.93
2017-08-07T19:33:33.371Z,5.07
2017-08-07T19:35:59.674Z,4.83
2017-08-07T19:38:26.029Z,4.40
2017-08-07T19:40:52.361Z,5.40
2017-08-07T19:43:18.666Z,4.77
2017-08-07T19:48:16.244Z,4.57
2017-08-07T19:50:42.552Z,4.87
2017-08-07T19:53:09.234Z,5.40
2017-08-07T19:55:35.559Z,5.40
2017-08-07T19:58:01.895Z,5.60
2017-08-07T20:00:28.731Z,4.53
2017-08-07T20:02:55.022Z,4.93
2017-08-07T20:05:21.316Z,5.10
2017-08-07T20:07:47.651Z,5.00
2017-08-07T20:10:14.823Z,4.83
2017-08-07T20:12:41.505Z,5.30
2017-08-07T20:15:07.839Z,5.17
2017-08-07T20:17:35.010Z,5.10
2017-08-07T20:20:01.330Z,4.73
2017-08-07T20:22:28.096Z,5.23
2017-08-07T20:24:54.484Z,5.73
2017-08-07T20:27:20.824Z,5.63
2017-08-07T20:29:47.141Z,5.20
2017-08-07T20:32:13.437Z,5.00
2017-08-07T20:34:39.756Z,6.10
2017-08-07T20:37:06.089Z,5.90
2017-08-07T20:39:32.380Z,6.00
2017-08-07T20:41:58.698Z,6.20
2017-08-07T20:44:24.977Z,6.50
2017-08-07T20:46:52.228Z,5.53
2017-08-07T20:49:18.526Z,6.13
2017-08-07T20:51:44.827Z,8.13
2017-08-07T20:54:11.117Z,7.70
2017-08-07T20:56:37.434Z,8.80
2017-08-07T20:59:03.720Z,8.63
2017-08-07T21:01:30.010Z,8.10
2017-08-07T21:03:56.324Z,8.47
2017-08-07T21:06:23.063Z,8.93
2017-08-07T21:08:49.345Z,8.83
2017-08-07T21:11:15.663Z,8.13
2017-08-07T21:13:41.967Z,7.80
2017-08-07T21:16:08.254Z,9.00
2017-08-07T21:18:34.586Z,9.73
2017-08-07T21:21:01.720Z,8.20
2017-08-07T21:23:28.051Z,9.30
2017-08-07T21:25:55.297Z,10.13
2017-08-07T21:28:21.579Z,8.93
2017-08-07T21:30:47.879Z,9.07
2017-08-07T21:33:14.281Z,7.97
2017-08-07T21:35:41.122Z,7.37
2017-08-07T21:38:11.183Z,6.60
2017-08-07T21:40:40.188Z,6.80
2017-08-07T21:43:08.954Z,6.00
2017-08-07T21:45:36.624Z,6.40
2017-08-07T21:48:03.877Z,5.83
2017-08-07T21:50:30.950Z,6.97
2017-08-07T21:53:01.134Z,6.50
2017-08-07T21:55:29.595Z,6.20
2017-08-07T21:57:55.901Z,7.30
2017-08-07T22:00:22.580Z,6.50
2017-08-07T22:02:50.065Z,7.50
2017-08-07T22:05:17.165Z,6.73
2017-08-07T22:07:43.434Z,7.50
2017-08-07T22:10:09.735Z,8.17
2017-08-07T22:12:37.469Z,7.90
2017-08-07T22:15:04.303Z,8.30
2017-08-07T22:17:33.068Z,8.57
2017-08-07T22:20:02.646Z,8.93
2017-08-07T22:22:30.203Z,9.30
2017-08-07T22:24:56.466Z,9.13
2017-08-07T22:27:23.697Z,9.07
2017-08-07T22:29:49.953Z,9.23
2017-08-07T22:32:16.783Z,9.30
2017-08-07T22:34:43.072Z,8.27
2017-08-07T22:37:09.372Z,7.80
2017-08-07T22:39:36.343Z,9.20
2017-08-07T22:42:04.610Z,10.10
2017-08-07T22:44:31.828Z,8.90
2017-08-07T22:46:59.058Z,9.80
2017-08-07T22:49:27.295Z,8.93
2017-08-07T22:51:55.849Z,8.60
2017-08-07T22:54:22.553Z,9.20
2017-08-07T22:56:48.837Z,8.60
2017-08-07T22:59:22.096Z,9.50
2017-08-07T23:01:48.357Z,8.30
2017-08-07T23:04:14.684Z,9.30
2017-08-07T23:06:41.571Z,9.80
2017-08-07T23:09:08.542Z,9.13
2017-08-07T23:11:34.838Z,9.10
2017-08-07T23:14:03.122Z,8.40
2017-08-07T23:16:29.933Z,9.73
2017-08-07T23:18:58.406Z,9.52
2017-08-07T23:21:24.719Z,10.77
2017-08-07T23:23:52.129Z,10.25
2017-08-07T23:26:18.440Z,10.13
2017-08-07T23:28:45.376Z,10.00
2017-08-07T23:31:12.623Z,9.85
2017-08-07T23:33:39.935Z,10.45
2017-08-07T23:36:10.980Z,9.98
2017-08-07T23:38:38.031Z,10.65
2017-08-07T23:41:04.312Z,10.25
2017-08-07T23:43:33.831Z,11.10
2017-08-07T23:46:00.101Z,11.50
2017-08-07T23:48:28.971Z,10.50
2017-08-07T23:50:56.919Z,11.55
2017-08-07T23:53:23.849Z,11.35
2017-08-07T23:55:50.724Z,10.85
2017-08-07T23:58:17.016Z,11.35
